Time;durP1;ratioP1;P1;durP2;ratioP2;P2;SDS_P1;SDS_P2;PMS_P1;PMS_P2;Temp;Humidity;BMP_temperature;BMP_pressure;BME280_temperature;BME280_humidity;BME280_pressure;Samples;Min_cycle;Max_cycle;Signal;HPM_P1;HPM_P2
2021/05/04 00:00:30;;;;;;;2.40;0.77;;;16.70;81.60;;;;;;4963559;28;95517;-53
2021/05/04 00:03:01;;;;;;;4.30;1.33;;;16.70;81.50;;;;;;4966174;28;98409;-58
2021/05/04 00:05:32;;;;;;;4.40;1.83;;;16.80;81.80;;;;;;4960476;28;95804;-58
2021/05/04 00:08:02;;;;;;;2.93;1.73;;;16.80;82.40;;;;;;4969171;28;96244;-57
2021/05/04 00:10:32;;;;;;;3.35;1.15;;;16.90;82.00;;;;;;4970621;28;95814;-56
2021/05/04 00:13:02;;;;;;;2.38;1.17;;;16.90;81.80;;;;;;4965865;28;96507;-59
2021/05/04 00:15:32;;;;;;;2.30;1.35;;;16.90;81.80;;;;;;4964242;28;95452;-58
2021/05/04 00:18:03;;;;;;;1.73;0.70;;;17.00;81.80;;;;;;4966823;28;95831;-56
2021/05/04 00:20:35;;;;;;;1.52;0.80;;;17.00;81.60;;;;;;4971065;28;95769;-58
2021/05/04 00:23:04;;;;;;;;;;;17.00;81.60;;;;;;4972455;28;96314;-58
2021/05/04 00:25:34;;;;;;;2.40;0.95;;;17.10;81.30;;;;;;4978055;28;95434;-57
2021/05/04 00:28:05;;;;;;;3.00;1.02;;;17.10;81.20;;;;;;4983152;28;95749;-57
2021/05/04 00:30:55;;;;;;;2.90;1.13;;;17.10;81.20;;;;;;4976347;28;95930;-59
2021/05/04 00:33:24;;;;;;;1.00;0.90;;;17.20;81.10;;;;;;4976343;28;95905;-56
2021/05/04 00:35:58;;;;;;;4.10;1.50;;;17.20;81.00;;;;;;4966800;28;95326;-58
2021/05/04 00:38:29;;;;;;;2.47;1.10;;;17.20;80.90;;;;;;4968149;28;95760;-57
2021/05/04 00:40:58;;;;;;;0.98;0.80;;;17.30;80.80;;;;;;4972835;28;95803;-58
2021/05/04 00:43:30;;;;;;;1.83;1.30;;;17.30;80.80;;;;;;4977213;28;96236;-57
2021/05/04 00:46:01;;;;;;;1.95;1.10;;;17.30;80.70;;;;;;4988001;28;95964;-57
2021/05/04 00:48:31;;;;;;;1.77;1.00;;;17.30;80.70;;;;;;4967200;28;95900;-56
2021/05/04 00:51:02;;;;;;;1.45;0.90;;;17.30;80.70;;;;;;4969807;28;95781;-57
2021/05/04 00:53:34;;;;;;;1.13;0.50;;;17.30;80.60;;;;;;4970358;28;95838;-57
2021/05/04 00:56:04;;;;;;;1.63;0.65;;;17.40;80.60;;;;;;4953228;28;95672;-57
2021/05/04 00:58:35;;;;;;;;;;;17.50;80.60;;;;;;4967498;28;96058;-56
2021/05/04 01:01:06;;;;;;;4.53;1.20;;;17.50;80.50;;;;;;4986667;28;95834;-57
2021/05/04 01:03:37;;;;;;;1.85;1.05;;;17.60;80.50;;;;;;4982127;28;95867;-56
2021/05/04 01:06:08;;;;;;;3.72;1.25;;;17.60;80.30;;;;;;4969684;28;95967;-58
2021/05/04 01:08:39;;;;;;;1.33;0.70;;;17.60;80.80;;;;;;4967787;28;95831;-56
2021/05/04 01:11:09;;;;;;;2.35;0.90;;;17.70;80.20;;;;;;4967827;28;95956;-55
2021/05/04 01:13:40;;;;;;;3.63;1.30;;;17.70;80.30;;;;;;4978459;28;95848;-56
2021/05/04 01:16:11;;;;;;;1.38;0.93;;;17.60;80.10;;;;;;4957838;28;96362;-58
2021/05/04 01:18:42;;;;;;;7.72;0.80;;;17.60;80.30;;;;;;4980646;28;95847;-55
2021/05/04 01:21:13;;;;;;;2.25;0.73;;;17.70;80.40;;;;;;4976302;28;95284;-58
2021/05/04 01:23:43;;;;;;;4.60;1.20;;;17.60;80.20;;;;;;4980189;28;96171;-57
2021/05/04 01:26:14;;;;;;;2.75;0.80;;;17.60;80.30;;;;;;4973909;28;95847;-57
2021/05/04 01:28:46;;;;;;;0.68;0.60;;;17.60;80.40;;;;;;4974707;28;95322;-55
2021/05/04 01:31:16;;;;;;;1.67;1.02;;;17.60;80.40;;;;;;4977887;28;96690;-55
2021/05/04 01:33:46;;;;;;;5.22;1.50;;;17.50;80.20;;;;;;4952081;28;96464;-57
2021/05/04 01:36:16;;;;;;;0.77;0.70;;;17.60;80.60;;;;;;4960690;28;95835;-56
2021/05/04 01:38:46;;;;;;;2.47;1.25;;;17.60;80.60;;;;;;4976603;28;95791;-54
2021/05/04 01:41:15;;;;;;;1.20;0.80;;;17.60;80.50;;;;;;4981509;28;97576;-59
2021/05/04 01:43:45;;;;;;;1.42;0.77;;;17.70;80.40;;;;;;4968197;28;96618;-58
2021/05/04 01:46:16;;;;;;;0.93;0.85;;;17.70;80.40;;;;;;4977633;28;96429;-57
2021/05/04 01:48:47;;;;;;;2.50;0.88;;;17.80;80.50;;;;;;4978255;28;95667;-55
2021/05/04 01:51:17;;;;;;;4.70;1.08;;;17.90;80.30;;;;;;4977381;28;95726;-56
2021/05/04 01:53:48;;;;;;;2.15;0.57;;;17.90;80.20;;;;;;4977644;28;102614;-56
2021/05/04 01:56:17;;;;;;;1.77;1.02;;;18.00;80.20;;;;;;4982123;28;95918;-59
2021/05/04 01:58:48;;;;;;;3.65;1.10;;;18.00;80.00;;;;;;4978220;28;96047;-56
2021/05/04 02:01:19;;;;;;;1.13;0.52;;;18.10;80.10;;;;;;4970511;28;95609;-56
2021/05/04 02:03:49;;;;;;;1.08;0.75;;;18.10;80.10;;;;;;4973912;28;95883;-57
2021/05/04 02:06:21;;;;;;;1.67;0.65;;;18.10;80.10;;;;;;4975187;28;95978;-54
2021/05/04 02:08:51;;;;;;;2.88;0.55;;;18.20;80.20;;;;;;4977541;28;95279;-59
2021/05/04 02:11:21;;;;;;;1.02;0.70;;;18.20;78.20;;;;;;4966053;28;95387;-55
2021/05/04 02:13:51;;;;;;;2.20;0.67;;;18.10;79.20;;;;;;4978503;28;95971;-57
2021/05/04 02:16:22;;;;;;;0.70;0.70;;;18.10;80.10;;;;;;4971971;28;95514;-55
2021/05/04 02:18:54;;;;;;;2.15;0.70;;;18.20;79.60;;;;;;4969566;28;95554;-55
2021/05/04 02:21:25;;;;;;;0.75;0.65;;;18.20;79.50;;;;;;4989338;28;95454;-56
2021/05/04 02:23:55;;;;;;;0.77;0.60;;;18.30;79.50;;;;;;4974252;28;104069;-57
2021/05/04 02:26:26;;;;;;;1.55;0.52;;;18.30;79.30;;;;;;4974882;28;95641;-55
2021/05/04 02:28:57;;;;;;;1.40;0.60;;;18.40;79.30;;;;;;4981683;28;96070;-56
2021/05/04 02:31:27;;;;;;;0.60;0.57;;;18.40;79.90;;;;;;4962818;28;95825;-57
2021/05/04 02:33:58;;;;;;;1.95;0.75;;;18.50;79.30;;;;;;4967496;28;96211;-57
2021/05/04 02:36:29;;;;;;;2.17;0.73;;;18.50;79.30;;;;;;4993062;28;97508;-57
2021/05/04 02:39:00;;;;;;;0.80;0.63;;;18.60;79.30;;;;;;4984843;28;95710;-59
2021/05/04 02:41:30;;;;;;;1.35;0.70;;;18.60;79.10;;;;;;4973184;28;95776;-56
2021/05/04 02:44:02;;;;;;;0.50;0.30;;;18.70;79.20;;;;;;4976315;28;96174;-57
2021/05/04 02:46:35;;;;;;;0.88;0.55;;;18.60;79.00;;;;;;4976668;28;95357;-55
2021/05/04 02:49:05;;;;;;;1.23;0.60;;;18.70;79.10;;;;;;4982854;28;101267;-55
2021/05/04 02:51:35;;;;;;;1.25;0.73;;;18.70;79.10;;;;;;4976120;28;96150;-56
2021/05/04 02:54:05;;;;;;;1.05;0.38;;;18.80;79.10;;;;;;4976239;28;98206;-57
2021/05/04 02:56:35;;;;;;;2.78;0.60;;;18.80;79.20;;;;;;4971661;28;95979;-58
2021/05/04 02:59:06;;;;;;;1.05;0.47;;;18.80;79.00;;;;;;4976975;28;96182;-56
2021/05/04 03:01:36;;;;;;;0.50;0.40;;;18.90;79.00;;;;;;4973513;28;96038;-59
2021/05/04 03:04:07;;;;;;;0.70;0.50;;;18.90;79.00;;;;;;4973514;28;96392;-61
2021/05/04 03:06:39;;;;;;;1.23;0.80;;;19.00;79.00;;;;;;4960294;28;96547;-60
2021/05/04 03:09:09;;;;;;;2.55;0.80;;;18.90;78.80;;;;;;4981971;28;96188;-59
2021/05/04 03:11:39;;;;;;;0.47;0.45;;;18.90;78.70;;;;;;4976781;28;95456;-59
2021/05/04 03:14:11;;;;;;;0.60;0.52;;;18.90;78.50;;;;;;4975316;28;95641;-60
2021/05/04 03:16:41;;;;;;;0.70;0.60;;;18.90;78.50;;;;;;4975920;28;95948;-59
2021/05/04 03:19:12;;;;;;;3.30;0.50;;;18.90;78.40;;;;;;4982887;28;96855;-58
2021/05/04 03:21:42;;;;;;;0.77;0.73;;;19.00;78.10;;;;;;4992183;28;96347;-59
2021/05/04 03:24:14;;;;;;;0.60;0.60;;;19.00;78.10;;;;;;4983591;28;95837;-58
2021/05/04 03:26:45;;;;;;;1.38;0.70;;;19.00;77.90;;;;;;4977243;28;96039;-60
2021/05/04 03:29:16;;;;;;;0.63;0.57;;;19.10;77.70;;;;;;4983725;28;95750;-59
2021/05/04 03:31:46;;;;;;;1.83;0.60;;;19.20;77.40;;;;;;4972444;28;95603;-58
2021/05/04 03:34:17;;;;;;;2.60;0.57;;;19.30;77.00;;;;;;4975755;28;95852;-59
2021/05/04 03:36:47;;;;;;;1.80;1.10;;;19.30;76.90;;;;;;4975322;28;95792;-60
2021/05/04 03:39:18;;;;;;;1.50;0.82;;;19.40;76.50;;;;;;4991831;28;95676;-61
2021/05/04 03:41:48;;;;;;;0.57;0.38;;;19.50;76.40;;;;;;4983952;28;95791;-59
2021/05/04 03:44:18;;;;;;;0.82;0.63;;;19.40;76.40;;;;;;4998976;28;95968;-59
2021/05/04 03:46:50;;;;;;;2.83;0.52;;;19.40;76.30;;;;;;4979650;28;95494;-58
2021/05/04 03:49:19;;;;;;;1.50;0.70;;;19.40;76.10;;;;;;4981777;28;95724;-61
2021/05/04 03:51:49;;;;;;;0.52;0.50;;;19.40;76.20;;;;;;4969982;28;95539;-59
2021/05/04 03:54:18;;;;;;;1.25;0.70;;;19.40;76.40;;;;;;4993992;28;98085;-58
2021/05/04 03:56:48;;;;;;;2.17;0.60;;;19.40;76.40;;;;;;4978337;28;95716;-59
2021/05/04 03:59:17;;;;;;;1.88;0.60;;;19.40;76.40;;;;;;4977740;28;95536;-58
2021/05/04 04:01:49;;;;;;;3.90;0.60;;;19.40;76.20;;;;;;4970071;28;95566;-59
2021/05/04 04:04:20;;;;;;;1.15;0.63;;;19.40;73.70;;;;;;4959723;28;95895;-56
2021/05/04 04:06:52;;;;;;;1.65;0.75;;;19.40;75.10;;;;;;4970340;28;95816;-60
2021/05/04 04:09:23;;;;;;;0.90;0.60;;;19.40;75.60;;;;;;4978641;28;95761;-56
2021/05/04 04:11:53;;;;;;;1.00;0.68;;;19.40;75.80;;;;;;4967336;28;95891;-54
2021/05/04 04:14:24;;;;;;;1.95;0.73;;;19.40;75.80;;;;;;4970621;28;96535;-56
2021/05/04 04:16:54;;;;;;;1.80;0.82;;;19.50;76.00;;;;;;4963958;28;95678;-54
2021/05/04 04:19:26;;;;;;;1.05;0.65;;;19.50;76.10;;;;;;4975386;28;95662;-54
2021/05/04 04:21:56;;;;;;;1.70;0.70;;;19.60;76.80;;;;;;4982255;28;95516;-55
2021/05/04 04:24:27;;;;;;;1.02;0.85;;;19.60;76.20;;;;;;4947838;28;96307;-57
2021/05/04 04:26:57;;;;;;;0.93;0.50;;;19.60;76.40;;;;;;4972057;28;95543;-54
2021/05/04 04:29:28;;;;;;;0.85;0.50;;;19.70;76.30;;;;;;4970381;28;95642;-55
2021/05/04 04:31:58;;;;;;;3.13;0.60;;;19.70;76.40;;;;;;4970787;28;96921;-55
2021/05/04 04:34:29;;;;;;;0.45;0.45;;;19.70;76.30;;;;;;4968577;28;97028;-55
2021/05/04 04:36:59;;;;;;;0.65;0.50;;;19.80;76.50;;;;;;4976505;28;95766;-55
2021/05/04 04:39:29;;;;;;;3.38;0.60;;;19.80;76.50;;;;;;4974539;28;96079;-55
2021/05/04 04:41:59;;;;;;;1.77;1.35;;;19.80;76.60;;;;;;4970434;28;95779;-54
2021/05/04 04:44:30;;;;;;;0.90;0.50;;;19.80;76.60;;;;;;4975547;28;95987;-54
2021/05/04 04:47:01;;;;;;;1.30;0.40;;;19.90;76.20;;;;;;4979067;28;95870;-55
2021/05/04 04:49:31;;;;;;;1.20;0.57;;;20.00;76.10;;;;;;4967306;28;96131;-56
2021/05/04 04:52:01;;;;;;;0.35;0.32;;;20.10;76.00;;;;;;4979833;28;95573;-55
2021/05/04 04:54:32;;;;;;;2.22;0.50;;;20.00;76.20;;;;;;4974971;28;96625;-55
2021/05/04 04:57:02;;;;;;;2.17;1.25;;;20.10;76.20;;;;;;4972086;28;95961;-51
2021/05/04 04:59:33;;;;;;;2.85;1.00;;;20.10;76.40;;;;;;4971654;28;96068;-57
2021/05/04 05:02:04;;;;;;;3.78;1.80;;;20.10;76.20;;;;;;4965388;28;99175;-55
2021/05/04 05:04:36;;;;;;;6.70;1.92;;;20.00;72.80;;;;;;4971779;28;96781;-56
2021/05/04 05:07:08;;;;;;;2.63;1.40;;;19.90;73.30;;;;;;4989332;28;96000;-53
2021/05/04 05:09:38;;;;;;;2.92;1.48;;;19.80;74.70;;;;;;4978900;28;95610;-56
2021/05/04 05:12:09;;;;;;;4.43;1.20;;;19.80;75.00;;;;;;4973286;28;95742;-53
2021/05/04 05:14:41;;;;;;;2.08;1.20;;;19.90;75.40;;;;;;4975926;28;95880;-53
2021/05/04 05:17:12;;;;;;;2.55;1.67;;;20.00;75.40;;;;;;4974775;28;95750;-55
2021/05/04 05:19:46;;;;;;;3.47;1.60;;;20.10;75.10;;;;;;4973512;28;95687;-56
2021/05/04 05:22:18;;;;;;;1.85;1.42;;;20.10;75.10;;;;;;4970096;28;95483;-55
2021/05/04 05:24:50;;;;;;;3.17;1.38;;;20.20;75.10;;;;;;4962329;28;95893;-55
2021/05/04 05:27:22;;;;;;;5.13;1.52;;;20.10;72.40;;;;;;4976655;28;96366;-55
2021/05/04 05:29:52;;;;;;;1.83;1.25;;;19.90;72.50;;;;;;4980327;28;95769;-56
2021/05/04 05:32:22;;;;;;;3.53;1.45;;;19.70;72.80;;;;;;4972483;28;96046;-54
2021/05/04 05:34:53;;;;;;;3.03;1.38;;;19.60;73.10;;;;;;4982557;28;96568;-56
2021/05/04 05:37:23;;;;;;;2.13;1.40;;;19.50;73.50;;;;;;4985509;28;95858;-56
2021/05/04 05:39:52;;;;;;;7.13;2.05;;;19.50;73.70;;;;;;4974957;28;95812;-55
2021/05/04 05:42:22;;;;;;;2.78;1.63;;;19.30;73.90;;;;;;4973808;28;95819;-55
2021/05/04 05:44:51;;;;;;;2.15;1.40;;;19.30;74.00;;;;;;4980604;28;95972;-55
2021/05/04 05:47:24;;;;;;;1.45;0.93;;;19.20;74.20;;;;;;4988432;28;96000;-57
2021/05/04 05:49:58;;;;;;;1.85;1.42;;;19.20;74.50;;;;;;4975042;28;95458;-56
2021/05/04 05:52:28;;;;;;;;;;;19.10;74.40;;;;;;4965927;28;99486;-56
2021/05/04 05:54:59;;;;;;;2.90;1.38;;;19.10;74.70;;;;;;4986251;28;96469;-58
2021/05/04 05:57:29;;;;;;;9.53;1.57;;;19.00;74.80;;;;;;4977231;28;95990;-57
2021/05/04 05:59:58;;;;;;;3.42;1.27;;;18.90;74.90;;;;;;4972749;28;96008;-55
2021/05/04 06:02:28;;;;;;;5.60;1.38;;;18.80;75.30;;;;;;4970323;28;95764;-55
2021/05/04 06:05:00;;;;;;;3.67;1.80;;;18.80;75.60;;;;;;4985358;28;96421;-57
2021/05/04 06:07:31;;;;;;;2.40;1.27;;;18.70;75.70;;;;;;4973413;28;95461;-53
2021/05/04 06:10:02;;;;;;;2.55;1.75;;;18.70;76.00;;;;;;4974943;28;95333;-57
2021/05/04 06:12:31;;;;;;;3.58;1.50;;;18.70;76.20;;;;;;4978969;28;95522;-57
2021/05/04 06:15:01;;;;;;;2.55;1.27;;;18.70;76.20;;;;;;4986612;28;95866;-58
2021/05/04 06:17:32;;;;;;;4.17;1.93;;;18.70;76.10;;;;;;4975780;28;95469;-55
2021/05/04 06:20:03;;;;;;;2.80;1.52;;;18.60;76.40;;;;;;4982596;28;95396;-57
2021/05/04 06:22:34;;;;;;;8.48;2.22;;;18.60;76.50;;;;;;4973758;28;95872;-58
2021/05/04 06:25:05;;;;;;;6.78;2.03;;;18.60;76.70;;;;;;4980773;28;96018;-56
2021/05/04 06:27:36;;;;;;;3.72;1.42;;;18.60;76.70;;;;;;4980268;28;95960;-58
2021/05/04 06:30:08;;;;;;;10.70;1.67;;;18.60;76.70;;;;;;4981250;28;95643;-60
2021/05/04 06:32:40;;;;;;;8.80;1.40;;;18.60;76.80;;;;;;4972948;28;95666;-57
2021/05/04 06:35:16;;;;;;;10.13;2.00;;;18.60;76.90;;;;;;4960594;28;98488;-57
2021/05/04 06:37:45;;;;;;;3.15;1.42;;;18.60;77.00;;;;;;4976184;28;95733;-56
2021/05/04 06:40:16;;;;;;;8.80;1.40;;;18.60;77.20;;;;;;4950540;28;96177;-56
2021/05/04 06:42:47;;;;;;;3.03;1.48;;;18.60;76.90;;;;;;4972205;28;96295;-56
2021/05/04 06:45:16;;;;;;;11.45;2.03;;;18.60;76.70;;;;;;4987019;28;95866;-58
2021/05/04 06:47:47;;;;;;;3.85;1.38;;;18.60;76.70;;;;;;4986796;28;95235;-55
2021/05/04 06:50:17;;;;;;;3.40;1.25;;;18.60;76.90;;;;;;4972526;28;103732;-57
2021/05/04 06:52:48;;;;;;;;;;;18.50;76.80;;;;;;4976536;28;95968;-57
2021/05/04 06:55:18;;;;;;;4.07;1.55;;;18.50;76.70;;;;;;4977485;28;95916;-57
2021/05/04 06:57:50;;;;;;;2.55;1.40;;;18.50;76.80;;;;;;4969928;28;96122;-55
2021/05/04 07:00:22;;;;;;;;;;;18.50;76.70;;;;;;4971687;28;102597;-58
2021/05/04 07:02:52;;;;;;;6.53;1.90;;;18.60;76.70;;;;;;4975358;28;96037;-56
2021/05/04 07:05:24;;;;;;;5.15;1.40;;;18.70;76.70;;;;;;4973662;28;95839;-56
2021/05/04 07:07:54;;;;;;;4.80;1.13;;;18.80;76.80;;;;;;4976343;28;95308;-54
2021/05/04 07:10:23;;;;;;;4.28;1.10;;;18.80;76.80;;;;;;4967879;28;99973;-55
2021/05/04 07:12:53;;;;;;;1.58;1.00;;;18.90;76.90;;;;;;4983529;28;95469;-55
2021/05/04 07:15:24;;;;;;;3.38;0.90;;;18.90;76.80;;;;;;4970587;28;96124;-53
2021/05/04 07:17:54;;;;;;;2.88;0.90;;;19.00;76.80;;;;;;4980751;28;95877;-54
2021/05/04 07:20:24;;;;;;;2.13;0.75;;;19.00;76.90;;;;;;4971915;28;95451;-55
2021/05/04 07:22:55;;;;;;;1.88;0.88;;;19.00;77.50;;;;;;4975526;28;95545;-51
2021/05/04 07:25:27;;;;;;;4.63;1.45;;;19.00;76.90;;;;;;4982689;28;95846;-53
2021/05/04 07:27:58;;;;;;;9.60;1.40;;;19.10;76.90;;;;;;4975066;28;95411;-54
2021/05/04 07:30:37;;;;;;;3.05;1.10;;;19.10;76.80;;;;;;4987433;28;95613;-55
2021/05/04 07:33:09;;;;;;;1.98;0.73;;;19.20;76.90;;;;;;4974268;28;95344;-57
2021/05/04 07:35:39;;;;;;;4.55;0.80;;;19.10;76.90;;;;;;4974576;28;98549;-56
2021/05/04 07:38:10;;;;;;;5.65;1.20;;;19.20;76.90;;;;;;4974803;28;95670;-55
2021/05/04 07:40:41;;;;;;;2.42;0.88;;;19.20;76.80;;;;;;4976603;28;102933;-55
2021/05/04 07:43:12;;;;;;;3.38;1.35;;;19.30;76.80;;;;;;4975312;28;95709;-55
2021/05/04 07:45:41;;;;;;;;;;;19.20;76.90;;;;;;4980391;28;95972;-55
2021/05/04 07:48:12;;;;;;;5.05;1.10;;;19.30;76.60;;;;;;4980048;28;96668;-55
2021/05/04 07:50:42;;;;;;;2.27;1.00;;;19.20;75.40;;;;;;4976246;28;96020;-56
2021/05/04 07:53:14;;;;;;;5.22;1.67;;;19.20;75.30;;;;;;4967280;28;96295;-55
2021/05/04 07:55:43;;;;;;;2.47;0.90;;;19.10;75.30;;;;;;4958742;28;96327;-52
2021/05/04 07:58:15;;;;;;;5.85;1.40;;;19.00;75.00;;;;;;4977184;28;95828;-55
2021/05/04 08:00:44;;;;;;;4.43;1.33;;;19.00;75.40;;;;;;4966857;28;98048;-50
2021/05/04 08:03:15;;;;;;;6.15;1.40;;;18.90;75.50;;;;;;4971251;28;95735;-54
2021/05/04 08:05:51;;;;;;;6.25;1.02;;;18.80;75.50;;;;;;4988228;28;96723;-55
2021/05/04 08:08:22;;;;;;;2.72;0.90;;;18.80;75.70;;;;;;4965593;28;96022;-54
2021/05/04 08:10:51;;;;;;;4.22;1.48;;;18.70;76.00;;;;;;4978651;28;95594;-56
2021/05/04 08:13:22;;;;;;;3.88;1.27;;;18.60;76.10;;;;;;4966169;28;95820;-54
2021/05/04 08:15:53;;;;;;;1.77;0.90;;;18.70;76.30;;;;;;4968410;28;96553;-56
2021/05/04 08:18:26;;;;;;;2.67;0.90;;;18.70;76.40;;;;;;4964907;28;95777;-54
2021/05/04 08:20:57;;;;;;;1.17;0.85;;;18.70;76.30;;;;;;4970699;28;95829;-55
2021/05/04 08:23:28;;;;;;;2.22;0.77;;;18.70;76.40;;;;;;4982730;28;95658;-57
2021/05/04 08:25:59;;;;;;;4.75;1.00;;;18.70;76.20;;;;;;4970923;28;96594;-56
2021/05/04 08:28:29;;;;;;;1.52;1.10;;;18.70;76.50;;;;;;4968577;28;95829;-59
2021/05/04 08:30:59;;;;;;;2.47;0.95;;;18.70;76.40;;;;;;4970435;28;96076;-55
2021/05/04 08:33:28;;;;;;;2.67;1.30;;;18.70;76.60;;;;;;4966252;28;95688;-54
2021/05/04 08:35:58;;;;;;;3.15;0.88;;;18.70;76.70;;;;;;4966980;28;96512;-55
2021/05/04 08:38:27;;;;;;;1.52;1.05;;;18.70;76.40;;;;;;4974622;28;95999;-56
2021/05/04 08:40:56;;;;;;;5.88;1.10;;;18.60;76.40;;;;;;4968740;28;96014;-57
2021/05/04 08:43:32;;;;;;;6.10;0.90;;;18.60;76.70;;;;;;4966374;28;95793;-55
2021/05/04 08:46:03;;;;;;;3.95;1.30;;;18.60;76.80;;;;;;4965705;28;96863;-55
2021/05/04 08:48:33;;;;;;;4.10;0.97;;;18.60;77.00;;;;;;4968031;28;96468;-54
2021/05/04 08:51:08;;;;;;;3.63;1.05;;;18.60;76.90;;;;;;4976447;28;95911;-54
2021/05/04 08:53:58;;;;;;;1.83;0.70;;;18.50;77.00;;;;;;4969766;28;95744;-55
2021/05/04 08:56:30;;;;;;;4.85;1.80;;;18.50;77.00;;;;;;4965902;28;95767;-54
2021/05/04 08:58:59;;;;;;;0.97;0.70;;;18.40;77.10;;;;;;4970338;28;96250;-55
2021/05/04 09:01:29;;;;;;;3.80;1.20;;;18.40;77.20;;;;;;4963069;28;97231;-53
2021/05/04 09:04:17;;;;;;;2.08;0.90;;;18.40;77.20;;;;;;4980990;28;96749;-55
2021/05/04 09:06:50;;;;;;;1.75;1.05;;;18.40;77.20;;;;;;4978751;28;98832;-56
2021/05/04 09:09:32;;;;;;;2.85;0.90;;;18.30;77.40;;;;;;4977873;28;95830;-54
2021/05/04 09:12:08;;;;;;;0.60;0.52;;;18.30;77.30;;;;;;4980008;28;95663;-55
2021/05/04 09:14:55;;;;;;;3.10;1.27;;;18.30;77.30;;;;;;4979772;28;97507;-56
2021/05/04 09:17:37;;;;;;;2.33;1.10;;;18.20;77.50;;;;;;4979352;28;96442;-52
2021/05/04 09:20:29;;;;;;;2.15;0.80;;;18.20;77.40;;;;;;4974424;28;96020;-55
2021/05/04 09:23:09;;;;;;;1.42;0.90;;;18.20;77.40;;;;;;4982983;28;96258;-52
2021/05/04 09:25:39;;;;;;;1.10;0.70;;;18.20;77.90;;;;;;4996707;28;95385;-54
2021/05/04 09:28:14;;;;;;;2.30;0.90;;;18.30;77.40;;;;;;4968958;28;96530;-54
2021/05/04 09:30:57;;;;;;;4.35;0.95;;;18.30;76.70;;;;;;4978679;28;98279;-54
2021/05/04 09:33:39;;;;;;;3.20;0.80;;;18.40;76.60;;;;;;4976858;28;95956;-55
2021/05/04 09:36:09;;;;;;;1.23;0.90;;;18.40;76.50;;;;;;4965605;28;95914;-54
2021/05/04 09:38:45;;;;;;;5.60;0.90;;;18.40;76.50;;;;;;4957217;28;96651;-54
2021/05/04 09:41:31;;;;;;;0.88;0.73;;;18.40;76.60;;;;;;4972972;28;97382;-55
2021/05/04 09:44:02;;;;;;;1.17;0.80;;;18.40;76.60;;;;;;4980421;28;95500;-58
2021/05/04 09:46:48;;;;;;;2.00;1.02;;;18.40;76.60;;;;;;4970147;28;95944;-56
2021/05/04 09:49:47;;;;;;;2.00;1.20;;;18.30;76.70;;;;;;4978484;28;95924;-57
2021/05/04 09:52:37;;;;;;;2.97;1.13;;;18.30;76.80;;;;;;4968683;28;96266;-58
2021/05/04 09:55:11;;;;;;;3.10;1.10;;;18.30;77.00;;;;;;4978861;28;95880;-53
2021/05/04 09:57:53;;;;;;;1.63;0.98;;;18.30;76.90;;;;;;4977416;28;101615;-55
2021/05/04 10:00:26;;;;;;;1.30;0.80;;;18.30;77.00;;;;;;4976530;28;96094;-57
2021/05/04 10:03:03;;;;;;;1.88;0.93;;;18.30;77.00;;;;;;4994077;28;102694;-54
2021/05/04 10:05:41;;;;;;;2.40;1.33;;;18.20;76.90;;;;;;4979239;28;95855;-55
2021/05/04 10:08:16;;;;;;;1.48;0.80;;;18.20;77.00;;;;;;4978521;28;95761;-52
2021/05/04 10:10:48;;;;;;;1.90;0.68;;;18.20;77.00;;;;;;4974796;28;95859;-57
2021/05/04 10:13:18;;;;;;;;;;;18.20;77.10;;;;;;4978802;28;95990;-54
2021/05/04 10:15:50;;;;;;;2.15;1.05;;;18.20;76.90;;;;;;4981005;28;95817;-56
2021/05/04 10:18:22;;;;;;;1.48;0.95;;;18.10;76.90;;;;;;4981609;28;95940;-54
2021/05/04 10:20:55;;;;;;;1.23;0.70;;;18.10;76.70;;;;;;4980253;28;96784;-55
2021/05/04 10:23:27;;;;;;;3.47;0.80;;;18.10;76.80;;;;;;4975520;28;95907;-54
2021/05/04 10:26:06;;;;;;;1.77;0.82;;;18.00;76.70;;;;;;4972858;28;95808;-58
2021/05/04 10:28:38;;;;;;;2.22;0.80;;;18.00;76.70;;;;;;4966314;28;96130;-55
2021/05/04 10:31:10;;;;;;;1.52;1.13;;;17.90;77.00;;;;;;4975901;28;95928;-55
2021/05/04 10:33:41;;;;;;;2.90;0.70;;;17.90;77.10;;;;;;4978284;28;96014;-55
2021/05/04 10:36:33;;;;;;;6.10;1.10;;;17.90;77.60;;;;;;4985647;28;95387;-53
2021/05/04 10:39:04;;;;;;;1.67;0.88;;;17.90;77.70;;;;;;4981838;28;95696;-58
2021/05/04 10:41:55;;;;;;;2.47;1.50;;;17.90;77.80;;;;;;4971344;28;96564;-55
2021/05/04 10:44:27;;;;;;;2.13;0.80;;;17.80;77.90;;;;;;4976717;28;95916;-57
2021/05/04 10:46:57;;;;;;;;;;;17.80;77.90;;;;;;4977454;28;95851;-58
2021/05/04 10:49:58;;;;;;;6.15;0.82;;;17.80;78.00;;;;;;4971751;28;95829;-57
2021/05/04 10:52:52;;;;;;;1.38;0.60;;;17.80;78.00;;;;;;4973223;28;95934;-58
2021/05/04 10:55:24;;;;;;;3.40;1.20;;;17.80;78.00;;;;;;4978443;28;96406;-57
2021/05/04 10:58:08;;;;;;;3.70;0.93;;;17.80;78.00;;;;;;4971139;28;96027;-56
2021/05/04 11:01:04;;;;;;;1.27;0.90;;;17.80;77.90;;;;;;4972932;28;95250;-57
2021/05/04 11:03:35;;;;;;;1.85;0.70;;;17.80;77.90;;;;;;4958753;28;98059;-55
2021/05/04 11:06:06;;;;;;;2.53;0.90;;;17.70;77.90;;;;;;4983106;28;95576;-56
2021/05/04 11:08:43;;;;;;;0.85;0.70;;;17.70;77.80;;;;;;4971861;28;95843;-56
2021/05/04 11:11:30;;;;;;;1.30;1.00;;;17.70;77.70;;;;;;4970915;28;96201;-56
2021/05/04 11:14:26;;;;;;;6.85;1.20;;;17.60;77.60;;;;;;4967463;28;95876;-55
2021/05/04 11:16:57;;;;;;;1.88;0.93;;;17.60;77.70;;;;;;4966084;28;95506;-58
2021/05/04 11:19:32;;;;;;;1.30;0.50;;;17.60;77.70;;;;;;4971980;28;95976;-57
2021/05/04 11:22:09;;;;;;;2.00;1.00;;;17.60;77.70;;;;;;4970623;28;95478;-58
2021/05/04 11:24:43;;;;;;;3.92;0.68;;;17.60;77.70;;;;;;4968429;28;95848;-56
2021/05/04 11:27:13;;;;;;;3.60;1.15;;;17.50;77.60;;;;;;4984175;28;95372;-56
2021/05/04 11:29:45;;;;;;;3.53;0.82;;;17.60;77.70;;;;;;4981677;28;95916;-56
2021/05/04 11:32:44;;;;;;;3.10;0.90;;;17.50;77.60;;;;;;4966011;28;95908;-55
2021/05/04 11:35:15;;;;;;;2.25;0.80;;;17.50;77.60;;;;;;4974164;28;95928;-56
2021/05/04 11:37:48;;;;;;;3.13;0.75;;;17.50;77.70;;;;;;4970530;28;95732;-55
2021/05/04 11:40:24;;;;;;;4.50;0.80;;;17.50;77.60;;;;;;4969026;28;98733;-57
2021/05/04 11:43:02;;;;;;;0.80;0.70;;;17.40;77.50;;;;;;4989725;28;95864;-56
2021/05/04 11:45:34;;;;;;;4.15;0.70;;;17.40;77.50;;;;;;4979161;28;95824;-56
2021/05/04 11:48:08;;;;;;;5.70;0.80;;;17.40;77.50;;;;;;4969722;28;95458;-55
2021/05/04 11:50:41;;;;;;;1.42;1.33;;;17.40;77.50;;;;;;4980625;28;95774;-57
2021/05/04 11:53:16;;;;;;;3.72;1.15;;;17.40;77.50;;;;;;4969777;28;95426;-55
2021/05/04 11:55:54;;;;;;;3.25;0.63;;;17.40;77.50;;;;;;4968266;28;96080;-53
2021/05/04 11:58:29;;;;;;;2.97;1.08;;;17.40;77.50;;;;;;4973286;28;95599;-55
2021/05/04 12:01:00;;;;;;;1.85;0.85;;;17.40;77.50;;;;;;4968471;28;96213;-56
2021/05/04 12:03:32;;;;;;;2.70;0.85;;;17.30;77.50;;;;;;4968716;28;95334;-56
2021/05/04 12:06:05;;;;;;;5.00;1.00;;;17.30;77.40;;;;;;4967565;28;95841;-53
2021/05/04 12:08:35;;;;;;;2.85;1.02;;;17.30;77.50;;;;;;4968338;28;95436;-57
2021/05/04 12:11:04;;;;;;;3.67;1.00;;;17.30;77.50;;;;;;4971447;28;95339;-57
2021/05/04 12:13:42;;;;;;;2.17;1.00;;;17.20;77.40;;;;;;4983834;28;95853;-55
2021/05/04 12:16:13;;;;;;;2.92;1.15;;;17.20;77.50;;;;;;4964353;28;96442;-56
2021/05/04 12:18:44;;;;;;;1.45;0.93;;;17.20;77.60;;;;;;4970751;28;95949;-55
2021/05/04 12:21:16;;;;;;;1.08;0.70;;;17.20;77.50;;;;;;4969800;28;95793;-55
2021/05/04 12:23:47;;;;;;;4.20;1.20;;;17.20;77.60;;;;;;4983530;28;95707;-54
2021/05/04 12:26:22;;;;;;;2.40;0.97;;;17.20;77.50;;;;;;4982313;28;96392;-55
2021/05/04 12:28:55;;;;;;;4.75;0.93;;;17.20;77.60;;;;;;4974010;28;95563;-56
2021/05/04 12:31:36;;;;;;;2.00;0.98;;;17.20;77.60;;;;;;4968289;28;95682;-56
2021/05/04 12:34:07;;;;;;;1.92;0.73;;;17.10;77.50;;;;;;4969915;28;95757;-56
2021/05/04 12:36:48;;;;;;;3.72;0.95;;;17.10;77.60;;;;;;4973360;28;95817;-55
2021/05/04 12:39:29;;;;;;;;;;;17.10;77.60;;;;;;4968938;28;98463;-55
2021/05/04 12:42:20;;;;;;;2.05;0.80;;;17.10;77.60;;;;;;4984294;28;96604;-57
2021/05/04 12:44:50;;;;;;;3.03;1.00;;;17.10;77.60;;;;;;4970524;28;95800;-57
2021/05/04 12:47:21;;;;;;;2.90;0.82;;;17.00;77.60;;;;;;4962470;28;96659;-55
2021/05/04 12:49:51;;;;;;;1.00;0.93;;;17.00;77.60;;;;;;4968028;28;96002;-56
2021/05/04 12:52:21;;;;;;;1.88;0.60;;;17.00;77.60;;;;;;4968582;28;102501;-55
2021/05/04 12:54:52;;;;;;;;;;;17.00;77.70;;;;;;4952140;28;95335;-57
2021/05/04 12:57:30;;;;;;;1.92;0.50;;;17.00;77.70;;;;;;4973284;28;98639;-55
2021/05/04 13:00:16;;;;;;;2.85;0.88;;;16.90;77.70;;;;;;4976409;28;95340;-55
2021/05/04 13:02:46;;;;;;;1.40;0.70;;;16.90;77.70;;;;;;4970484;28;95655;-56
2021/05/04 13:05:24;;;;;;;1.45;0.75;;;16.90;77.70;;;;;;4979440;28;95562;-54
2021/05/04 13:08:06;;;;;;;3.30;0.88;;;16.90;77.70;;;;;;4973962;28;95921;-56
2021/05/04 13:10:59;;;;;;;4.07;0.90;;;16.90;77.80;;;;;;4974246;28;95723;-56
2021/05/04 13:32:56;;;;;;;4.32;0.88;;;16.70;77.60;;;;;;4977842;28;101905;-56
2021/05/04 13:35:36;;;;;;;4.22;0.98;;;16.70;77.70;;;;;;4977046;28;96085;-56